N56Y L18-KSAN
Flight info
| Callsign | N56Y |
|---|---|
| Flight time | N/A |
| Altitude | 4000 |
| Route | OCN |
| Aircraft | TBM9/L-VGD/C |
Departure
| Time | N/A |
|---|---|
| Airport | Fallbrook Community Airpark (L18) |
Arrival
| Time | 2026-04-24 02:39 |
|---|---|
| Airport | San Diego International Airport (KSAN) |
| Time | Latitude | Longitude | Altitude | Speed | Heading |
|---|---|---|---|---|---|
| 2026-04-24 02:28 | 32.97344 | -117.15662 | 4841 ft | 231 kts | 101° |
| 2026-04-24 02:28 | 32.97054 | -117.13781 | 4841 ft | 231 kts | 101° |
| 2026-04-24 02:28 | 32.96765 | -117.11901 | 4842 ft | 231 kts | 101° |
| 2026-04-24 02:28 | 32.96477 | -117.10021 | 4838 ft | 231 kts | 101° |
| 2026-04-24 02:29 | 32.96191 | -117.08140 | 4841 ft | 230 kts | 101° |
| 2026-04-24 02:29 | 32.95906 | -117.06262 | 4838 ft | 230 kts | 101° |
| 2026-04-24 02:29 | 32.95625 | -117.04382 | 4832 ft | 231 kts | 101° |
| 2026-04-24 02:29 | 32.95343 | -117.02504 | 4837 ft | 230 kts | 101° |
| 2026-04-24 02:30 | 32.95058 | -117.00625 | 4839 ft | 231 kts | 101° |
| 2026-04-24 02:30 | 32.94776 | -116.98771 | 4834 ft | 231 kts | 101° |
| 2026-04-24 02:30 | 32.94489 | -116.96887 | 4834 ft | 232 kts | 101° |
| 2026-04-24 02:30 | 32.94199 | -116.94998 | 4805 ft | 232 kts | 101° |
| 2026-04-24 02:31 | 32.93843 | -116.93103 | 4767 ft | 231 kts | 113° |
| 2026-04-24 02:31 | 32.92826 | -116.91706 | 4698 ft | 229 kts | 151° |
| 2026-04-24 02:31 | 32.91307 | -116.91289 | 4660 ft | 225 kts | 183° |
| 2026-04-24 02:31 | 32.89757 | -116.91498 | 4654 ft | 224 kts | 191° |
| 2026-04-24 02:32 | 32.88262 | -116.91811 | 4916 ft | 213 kts | 191° |
| 2026-04-24 02:32 | 32.86813 | -116.92109 | 5064 ft | 214 kts | 191° |
| 2026-04-24 02:32 | 32.85322 | -116.92410 | 5055 ft | 219 kts | 191° |
| 2026-04-24 02:32 | 32.83803 | -116.92712 | 5016 ft | 223 kts | 191° |
| 2026-04-24 02:33 | 32.82256 | -116.93023 | 4950 ft | 226 kts | 191° |
| 2026-04-24 02:33 | 32.80700 | -116.93336 | 4887 ft | 227 kts | 191° |
| 2026-04-24 02:33 | 32.79137 | -116.93648 | 4817 ft | 228 kts | 191° |
| 2026-04-24 02:33 | 32.77571 | -116.93960 | 4744 ft | 228 kts | 191° |
| 2026-04-24 02:34 | 32.75996 | -116.94277 | 4581 ft | 231 kts | 191° |
| 2026-04-24 02:34 | 32.74419 | -116.94598 | 4346 ft | 234 kts | 191° |
| 2026-04-24 02:34 | 32.72807 | -116.94932 | 4130 ft | 236 kts | 191° |
| 2026-04-24 02:34 | 32.71191 | -116.95271 | 3906 ft | 236 kts | 191° |
| 2026-04-24 02:35 | 32.69612 | -116.95734 | 3806 ft | 231 kts | 200° |
| 2026-04-24 02:35 | 32.68345 | -116.96814 | 3799 ft | 224 kts | 233° |
| 2026-04-24 02:35 | 32.67838 | -116.98522 | 3790 ft | 222 kts | 268° |
| 2026-04-24 02:35 | 32.68244 | -117.00253 | 3794 ft | 220 kts | 301° |
| 2026-04-24 02:36 | 32.69093 | -117.01763 | 3792 ft | 219 kts | 298° |
| 2026-04-24 02:36 | 32.69594 | -117.03462 | 3790 ft | 219 kts | 284° |
| 2026-04-24 02:36 | 32.69955 | -117.05220 | 3788 ft | 217 kts | 282° |
| 2026-04-24 02:36 | 32.70266 | -117.06888 | 3399 ft | 203 kts | 282° |
| 2026-04-24 02:37 | 32.70580 | -117.08522 | 2720 ft | 202 kts | 285° |
| 2026-04-24 02:37 | 32.70953 | -117.10085 | 2370 ft | 191 kts | 286° |
| 2026-04-24 02:37 | 32.71356 | -117.11588 | 1851 ft | 192 kts | 290° |
| 2026-04-24 02:37 | 32.71845 | -117.13034 | 1477 ft | 183 kts | 290° |
| 2026-04-24 02:38 | 32.72292 | -117.14433 | 970 ft | 182 kts | 289° |
| 2026-04-24 02:38 | 32.72688 | -117.15840 | 580 ft | 174 kts | 284° |
| 2026-04-24 02:38 | 32.72949 | -117.17228 | 189 ft | 172 kts | 283° |
| 2026-04-24 02:38 | 32.73235 | -117.18522 | 41 ft | 133 kts | 284° |
| 2026-04-24 02:39 | 32.73463 | -117.19397 | 56 ft | 96 kts | 287° |
| 2026-04-24 02:39 | 32.73582 | -117.19915 | 20 ft | 14 kts | 285° |
| 2026-04-24 02:39 | 32.73596 | -117.20150 | 22 ft | 22 kts | 240° |
| 2026-04-24 02:39 | 32.73313 | -117.20152 | 20 ft | 1 kts | 92° |
| 2026-04-24 02:40 | 32.73313 | -117.20148 | 20 ft | 0 kts | 92° |